createdAt,value
2023-04-24T00:05:03.745Z,1.60
2023-04-24T00:10:07.499Z,1.67
2023-04-24T00:15:11.733Z,2.30
2023-04-24T00:20:16.567Z,2.30
2023-04-24T00:25:19.238Z,1.97
2023-04-24T00:30:21.780Z,2.27
2023-04-24T00:35:25.991Z,2.40
2023-04-24T00:40:29.017Z,2.63
2023-04-24T00:45:32.186Z,3.00
2023-04-24T00:50:37.821Z,3.23
2023-04-24T00:55:41.096Z,3.20
2023-04-24T01:00:43.710Z,3.97
2023-04-24T01:05:48.113Z,4.13
2023-04-24T01:10:53.428Z,4.07
2023-04-24T01:15:56.085Z,3.60
2023-04-24T01:21:01.526Z,3.90
2023-04-24T01:26:06.152Z,4.00
2023-04-24T01:31:09.003Z,4.27
2023-04-24T01:36:13.065Z,4.20
2023-04-24T01:41:17.491Z,5.70
2023-04-24T01:46:21.455Z,4.77
2023-04-24T01:51:24.041Z,5.93
2023-04-24T01:56:31.014Z,5.20
2023-04-24T02:01:38.024Z,5.57
2023-04-24T02:06:41.400Z,6.10
2023-04-24T02:11:45.294Z,4.90
2023-04-24T02:16:48.274Z,5.93
2023-04-24T02:21:51.259Z,6.60
2023-04-24T02:26:55.692Z,7.30
2023-04-24T02:31:58.348Z,8.87
2023-04-24T02:37:01.290Z,9.20
2023-04-24T02:42:05.475Z,8.83
2023-04-24T02:47:08.491Z,8.37
2023-04-24T02:52:11.587Z,7.83
2023-04-24T02:57:16.082Z,10.33
2023-04-24T03:02:19.250Z,10.90
2023-04-24T03:07:22.092Z,9.77
2023-04-24T03:12:26.351Z,9.80
2023-04-24T03:17:28.949Z,10.17
2023-04-24T03:22:33.415Z,10.27
2023-04-24T03:27:38.263Z,10.90
2023-04-24T03:32:47.877Z,10.23
2023-04-24T03:37:56.011Z,10.63
2023-04-24T03:43:18.550Z,10.93
2023-04-24T03:48:22.228Z,9.67
2023-04-24T03:53:25.534Z,13.50
2023-04-24T03:58:29.697Z,10.30
2023-04-24T04:03:33.185Z,9.70
2023-04-24T04:08:36.230Z,10.50
2023-04-24T04:13:40.946Z,10.27
2023-04-24T04:18:44.060Z,9.33
2023-04-24T04:23:46.874Z,9.30
2023-04-24T04:29:02.214Z,10.37
2023-04-24T04:34:05.760Z,8.83
2023-04-24T04:39:10.161Z,8.13
2023-04-24T04:44:39.431Z,8.13
2023-04-24T04:49:44.329Z,8.30
2023-04-24T04:54:54.560Z,8.97
2023-04-24T05:00:01.320Z,7.93
2023-04-24T05:05:17.977Z,7.20
2023-04-24T05:10:21.207Z,7.17
2023-04-24T05:15:27.382Z,10.70
2023-04-24T05:20:30.188Z,8.20
2023-04-24T05:25:36.199Z,7.77
2023-04-24T05:30:45.468Z,7.27
2023-04-24T05:35:50.076Z,7.10
2023-04-24T05:40:54.048Z,7.63
2023-04-24T05:45:58.050Z,7.20
2023-04-24T05:51:00.671Z,7.17
2023-04-24T05:56:03.282Z,7.23
2023-04-24T06:01:07.785Z,8.00
2023-04-24T06:06:10.885Z,7.80
2023-04-24T06:11:13.676Z,8.07
2023-04-24T06:16:17.752Z,7.97
2023-04-24T06:21:26.709Z,7.77
2023-04-24T06:26:29.550Z,7.70
2023-04-24T06:31:37.738Z,8.10
2023-04-24T06:36:40.544Z,7.00
2023-04-24T06:41:43.155Z,7.10
2023-04-24T06:46:56.302Z,8.60
2023-04-24T06:51:58.842Z,5.37
2023-04-24T06:57:03.473Z,4.43
2023-04-24T07:02:07.552Z,5.20
2023-04-24T07:07:13.854Z,3.20
2023-04-24T07:12:17.850Z,3.00
2023-04-24T07:17:22.016Z,2.80
2023-04-24T07:22:24.916Z,6.63
2023-04-24T07:27:27.679Z,1.90
2023-04-24T07:32:31.712Z,1.90
2023-04-24T07:37:34.364Z,1.77
2023-04-24T07:42:40.008Z,1.53
2023-04-24T07:47:46.555Z,1.63
2023-04-24T07:52:49.182Z,1.53
2023-04-24T07:57:51.847Z,1.50
2023-04-24T08:02:55.868Z,1.10
2023-04-24T08:07:58.522Z,1.33
2023-04-24T08:13:01.069Z,1.30
2023-04-24T08:18:05.843Z,1.40
2023-04-24T08:23:08.458Z,1.13
2023-04-24T08:28:11.615Z,1.47
2023-04-24T08:33:15.576Z,1.20
2023-04-24T08:38:18.283Z,1.00
2023-04-24T08:43:23.892Z,4.80
2023-04-24T08:48:31.693Z,1.00
2023-04-24T08:53:35.368Z,2.03
2023-04-24T08:58:38.423Z,4.90
2023-04-24T09:03:43.109Z,6.60
2023-04-24T09:08:47.197Z,7.00
2023-04-24T09:13:50.534Z,6.70
2023-04-24T09:18:54.910Z,6.30
2023-04-24T09:24:01.246Z,6.47
2023-04-24T09:29:05.906Z,5.83
2023-04-24T09:34:09.978Z,6.43
2023-04-24T09:39:16.215Z,5.60
2023-04-24T09:44:21.760Z,5.87
2023-04-24T09:49:27.538Z,6.70
2023-04-24T09:54:30.742Z,6.20
2023-04-24T09:59:36.076Z,5.20
2023-04-24T10:04:41.384Z,5.70
2023-04-24T10:09:44.674Z,4.80
2023-04-24T10:14:48.676Z,4.80
2023-04-24T10:19:53.809Z,4.77
2023-04-24T10:24:56.592Z,5.00
2023-04-24T10:29:59.766Z,4.10
2023-04-24T10:35:03.775Z,4.70
2023-04-24T10:40:09.875Z,4.97
2023-04-24T10:45:19.394Z,4.30
2023-04-24T10:50:23.399Z,4.13
2023-04-24T10:55:46.685Z,4.60
2023-04-24T11:00:58.953Z,4.63
2023-04-24T11:06:04.558Z,5.33
2023-04-24T11:11:13.032Z,4.90
2023-04-24T11:16:17.474Z,5.10
2023-04-24T11:21:21.984Z,3.70
2023-04-24T11:26:25.613Z,4.53
2023-04-24T11:31:38.760Z,3.73
2023-04-24T11:36:45.105Z,3.50
2023-04-24T11:41:48.710Z,3.40
2023-04-24T11:46:51.261Z,3.77
2023-04-24T11:52:00.956Z,3.87
2023-04-24T11:57:06.819Z,3.23
2023-04-24T12:02:10.687Z,3.20
2023-04-24T12:07:14.649Z,3.27
2023-04-24T12:12:18.888Z,3.27
2023-04-24T12:17:29.014Z,2.60
2023-04-24T12:22:47.433Z,2.40
2023-04-24T12:27:55.663Z,2.03
2023-04-24T12:33:00.550Z,2.40
2023-04-24T12:38:11.656Z,3.00
2023-04-24T12:43:18.575Z,2.80
2023-04-24T12:48:22.451Z,2.60
2023-04-24T12:53:31.181Z,1.43
2023-04-24T12:58:34.606Z,1.83
2023-04-24T13:03:37.466Z,1.60
2023-04-24T13:08:41.451Z,1.20
2023-04-24T13:13:44.239Z,1.80
2023-04-24T13:18:46.875Z,1.30
2023-04-24T13:23:50.865Z,1.50
2023-04-24T13:28:53.512Z,1.60
2023-04-24T13:33:56.158Z,1.93
2023-04-24T13:39:00.288Z,3.37
2023-04-24T13:44:03.153Z,3.20
2023-04-24T13:49:05.910Z,2.43
2023-04-24T13:54:09.794Z,2.20
2023-04-24T13:59:14.460Z,2.97
2023-04-24T14:04:17.094Z,2.13
2023-04-24T14:09:22.306Z,1.60
2023-04-24T14:14:25.381Z,1.60
2023-04-24T14:19:28.475Z,3.27
2023-04-24T14:24:32.412Z,2.10
2023-04-24T14:29:35.442Z,2.17
2023-04-24T14:34:38.241Z,2.13
2023-04-24T14:39:44.505Z,2.37
2023-04-24T14:44:50.498Z,1.90
2023-04-24T14:49:53.249Z,1.97
2023-04-24T14:54:57.146Z,1.70
2023-04-24T14:59:59.787Z,1.23
2023-04-24T15:05:02.569Z,1.53
2023-04-24T15:10:07.799Z,1.70
2023-04-24T15:15:11.200Z,1.80
2023-04-24T15:20:13.778Z,1.60
2023-04-24T15:25:17.744Z,2.07
2023-04-24T15:30:20.316Z,1.80
2023-04-24T15:35:22.923Z,1.83
2023-04-24T15:40:26.969Z,1.80
2023-04-24T15:45:29.634Z,2.20
2023-04-24T15:50:32.268Z,2.80
2023-04-24T15:55:37.474Z,2.37
2023-04-24T16:00:40.803Z,2.35
2023-04-24T16:05:43.396Z,2.43
2023-04-24T16:10:47.298Z,2.43
2023-04-24T16:15:50.041Z,1.97
2023-04-24T16:20:52.661Z,2.40
2023-04-24T16:25:57.103Z,1.87
2023-04-24T16:31:00.398Z,2.10
2023-04-24T16:36:04.220Z,2.00
2023-04-24T16:41:10.349Z,2.27
2023-04-24T16:46:12.930Z,1.50
2023-04-24T16:51:15.563Z,1.73
2023-04-24T16:56:19.816Z,2.07
2023-04-24T17:01:22.412Z,2.40
2023-04-24T17:06:25.192Z,2.37
2023-04-24T17:11:31.248Z,2.27
2023-04-24T17:16:34.061Z,2.90
2023-04-24T17:21:37.327Z,2.37
2023-04-24T17:26:41.236Z,2.80
2023-04-24T17:31:43.886Z,2.10
2023-04-24T17:36:46.557Z,2.90
2023-04-24T17:41:50.599Z,2.63
2023-04-24T17:46:53.181Z,2.43
2023-04-24T17:51:55.709Z,3.33
2023-04-24T17:56:59.631Z,3.13
2023-04-24T18:02:02.175Z,3.57
2023-04-24T18:07:04.778Z,3.47
2023-04-24T18:12:09.085Z,3.57
2023-04-24T18:17:11.632Z,3.83
2023-04-24T18:22:14.323Z,3.60
2023-04-24T18:27:19.042Z,2.93
2023-04-24T18:32:21.677Z,5.67
2023-04-24T18:37:24.826Z,5.60
2023-04-24T18:42:28.795Z,3.90
2023-04-24T18:47:31.912Z,3.30
2023-04-24T18:52:34.913Z,3.80
2023-04-24T18:57:38.857Z,9.90
2023-04-24T19:02:41.997Z,4.60
2023-04-24T19:07:44.874Z,3.70
2023-04-24T19:12:49.421Z,3.40
2023-04-24T19:17:52.523Z,3.23
2023-04-24T19:22:55.212Z,30.10
2023-04-24T19:27:59.191Z,4.30
2023-04-24T19:33:02.395Z,3.20
2023-04-24T19:38:05.529Z,2.80
2023-04-24T19:43:09.801Z,2.87
2023-04-24T19:48:12.583Z,3.23
2023-04-24T19:53:15.741Z,5.93
2023-04-24T19:58:19.702Z,3.23
2023-04-24T20:03:32.891Z,4.13
2023-04-24T20:08:39.048Z,4.67
2023-04-24T20:13:42.970Z,3.73
2023-04-24T20:18:46.021Z,3.67
2023-04-24T20:23:49.008Z,5.03
2023-04-24T20:28:53.231Z,4.07
2023-04-24T20:33:55.926Z,4.50
2023-04-24T20:38:59.492Z,4.67
2023-04-24T20:44:04.181Z,4.90
2023-04-24T20:49:07.543Z,4.17
2023-04-24T20:54:10.118Z,4.93
2023-04-24T20:59:14.112Z,4.20
2023-04-24T21:04:16.676Z,4.93
2023-04-24T21:09:19.779Z,4.50
2023-04-24T21:14:23.795Z,5.77
2023-04-24T21:19:26.358Z,5.07
2023-04-24T21:24:29.068Z,4.50
2023-04-24T21:29:33.547Z,5.17
2023-04-24T21:34:36.066Z,5.90
2023-04-24T21:39:38.590Z,5.47
2023-04-24T21:44:42.627Z,5.60
2023-04-24T21:49:45.179Z,6.17
2023-04-24T21:54:47.811Z,6.20
2023-04-24T21:59:52.438Z,5.50
2023-04-24T22:04:56.250Z,4.80
2023-04-24T22:09:59.039Z,5.30
2023-04-24T22:15:03.861Z,5.03
2023-04-24T22:20:07.832Z,6.28
2023-04-24T22:25:11.214Z,5.80
2023-04-24T22:30:15.352Z,5.53
2023-04-24T22:35:19.286Z,4.60
2023-04-24T22:40:21.862Z,5.20
2023-04-24T22:45:26.089Z,5.47
2023-04-24T22:50:29.026Z,5.70
2023-04-24T22:55:32.030Z,4.30
2023-04-24T23:00:36.401Z,5.77
2023-04-24T23:05:39.005Z,5.70
2023-04-24T23:10:42.033Z,5.60
2023-04-24T23:15:46.319Z,5.50
2023-04-24T23:20:48.996Z,6.13
2023-04-24T23:25:51.594Z,6.50
2023-04-24T23:30:55.863Z,4.93
2023-04-24T23:35:58.979Z,5.37
2023-04-24T23:41:01.925Z,4.67
2023-04-24T23:46:06.169Z,4.97
2023-04-24T23:51:08.770Z,4.87
2023-04-24T23:56:11.312Z,6.28
